Aaron F. Barrett — WDB8606 — position and weather

sailwx.info

Track history (hours):
 
Tides and Currents Weather Stations Pressure Air Temp Water Temp Dewpoint Dewpoint Depression Visibility Wind Speed Wind Dir Waves Ship Positions

Aaron F. Barrett

Owner: Ingram Barge Company LLC, Nashville, TN. More information available from US FCC via Universal Licensing System and Coast Guard Vessel Documentation Center.

Last reported at 2017-Sep-28 01:45 UTC. Time now 2017-Nov-24 12:55 UTC.
Position N 38°53' W 090°32'.
Warning: this ship's position is 57 days out of date.

Length 56 m; draft 3 m.

Type: Tow > 200 m length. MMSI: 366961450.

Date/timePositionNaut miles runAvg speedWind from/ knotsBaromVisibWave heightAir tempDewpointWater temp
2017-Sep-28 01:45N 38°53' W 090°32'1 4.0
2017-Sep-28 01:27N 38°54' W 090°31'2 3.9
2017-Sep-28 01:00N 38°56' W 090°30'2 3.9
2017-Sep-28 00:30N 38°57' W 090°28'2 4.2
2017-Sep-28 00:00N 38°58' W 090°26'2 3.6
2017-Sep-27 23:30N 38°58' W 090°23'2 3.3
2017-Sep-27 23:00N 38°57' W 090°21'2 4.1
2017-Sep-27 22:30N 38°56' W 090°19'4 4.1
2017-Sep-27 21:27N 38°55' W 090°14'  
2017-Sep-25 06:56N 38°55' W 090°17'2 5.3
2017-Sep-25 06:30N 38°56' W 090°20'3 5.5
2017-Sep-25 06:00N 38°57' W 090°23'3 5.3
2017-Sep-25 05:30N 38°58' W 090°26'3 5.2
2017-Sep-25 05:00N 38°56' W 090°29'  
Track history (hours):
 
Tides and Currents Weather Stations Pressure Air Temp Water Temp Dewpoint Dewpoint Depression Visibility Wind Speed Wind Dir Waves Ship Positions

Aaron F. Barrett

Owner: Ingram Barge Company LLC, Nashville, TN. More information available from US FCC via Universal Licensing System and Coast Guard Vessel Documentation Center.

Last reported at 2017-Sep-28 01:45 UTC. Time now 2017-Nov-24 12:55 UTC.
Position N 38°53' W 090°32'.
Warning: this ship's position is 57 days out of date.

Length 56 m; draft 3 m.

Type: Tow > 200 m length. MMSI: 366961450.

Date/timePositionNaut miles runAvg speedWind from/ knotsBaromVisibWave heightAir tempDewpointWater temp
2017-Sep-28 01:45N 38°53' W 090°32'1 4.0
2017-Sep-28 01:27N 38°54' W 090°31'2 3.9
2017-Sep-28 01:00N 38°56' W 090°30'2 3.9
2017-Sep-28 00:30N 38°57' W 090°28'2 4.2
2017-Sep-28 00:00N 38°58' W 090°26'2 3.6
2017-Sep-27 23:30N 38°58' W 090°23'2 3.3
2017-Sep-27 23:00N 38°57' W 090°21'2 4.1
2017-Sep-27 22:30N 38°56' W 090°19'4 4.1
2017-Sep-27 21:27N 38°55' W 090°14'  
2017-Sep-25 06:56N 38°55' W 090°17'2 5.3
2017-Sep-25 06:30N 38°56' W 090°20'3 5.5
2017-Sep-25 06:00N 38°57' W 090°23'3 5.3
2017-Sep-25 05:30N 38°58' W 090°26'3 5.2
2017-Sep-25 05:00N 38°56' W 090°29'  

Dump ship's entire track history